Nearby METAR Reports

 

KMTN - Baltimore/Martin, Maryland, USA
Distance from station: SSE 8mi, 13km
Updated: Sat, 20-Sep-2014 3:42am EDT
Partly cloudy
Partly cloudy
 Wind from NW
Wind: NW 5 mph , 7 km/h
Temperature: 63°F , 17°C
Dew Point: 61°F , 16°C
Humidity: 94%
Barometer: 30.29 inHg , 1025.7 hPa
Clouds: Partly cloudy
Visibility: 10 miles , 16 km
Cloud details: Partly cloudy 3600 ft
Partly cloudy 8500 ft
2014/09/20 07:42 KMTN 200742Z AUTO 31004KT 10SM SCT036 SCT085 17/16 A3029 RMK AO2
KDMH - Baltimore/Dwntwn, Maryland, USA
Distance from station: SW 12mi, 19km
Updated: Sat, 20-Sep-2014 2:54am EDT

 
Temperature: 64°F , 18°C
Dew Point: 59°F , 15°C
Humidity: 83%
Barometer: 30.28 inHg , 1025.4 hPa
2014/09/20 06:54 KDMH 200654Z AUTO 18/15 A3028 RMK AO1 SLP253 T01830150
 
KBWI - Balto/Wash Intl, Maryland, USA
Distance from station: SSW 20mi, 33km
Updated: Sat, 20-Sep-2014 2:54am EDT
Overcast
Overcast
 Wind from calm
Wind: Calm
Temperature: 63°F , 17°C
Dew Point: 61°F , 16°C
Humidity: 94%
Barometer: 30.27 inHg , 1025.1 hPa
Clouds: Overcast
Visibility: 9 miles , 14 km
Cloud details: Partly cloudy 2900 ft
Mostly cloudy 6500 ft
Overcast 8000 ft
2014/09/20 06:54 KBWI 200654Z 00000KT 9SM SCT029 BKN065 OVC080 17/16 A3027 RMK AO2 SLP250 T01720156
KDMW - Carroll Cnty, Maryland, USA
Distance from station: WNW 30mi, 48km
Updated: Sat, 20-Sep-2014 3:40am EDT
Overcast
Overcast
 Wind from SE
Wind: SE 7 mph , 11 km/h
Temperature: 61°F , 16°C
Dew Point: 57°F , 14°C
Humidity: 88%
Barometer: 30.27 inHg , 1025.1 hPa
Clouds: Overcast
Visibility: 7 miles , 11 km
Cloud details: Partly cloudy 900 ft
Partly cloudy 6000 ft
Overcast 8000 ft
2014/09/20 07:40 KDMW 200740Z AUTO 13006KT 7SM SCT009 SCT060 OVC080 16/14 A3027 RMK AO2
 
KNAK - Annapolis/Naval, Maryland, USA
Distance from station: S 30mi, 48km
Updated: Sat, 20-Sep-2014 2:54am EDT

 Wind from ESE
Wind: ESE 10 mph , 17 km/h
Temperature: 66°F , 19°C
Dew Point: 63°F , 17°C
Humidity: 88%
Barometer: 30.26 inHg , 1024.7 hPa
Visibility: 9 miles , 14 km
2014/09/20 06:54 KNAK 200654Z AUTO 12009KT 9SM 19/17 A3026 RMK AO2 SLP248 T01890167 $
KW29 - Stevensville, Maryland, USA
Distance from station: SSE 31mi, 50km
Updated: Sat, 20-Sep-2014 3:41am EDT

 Wind from calm
Wind: Calm
Temperature: 63°F , 17°C
Dew Point: 59°F , 15°C
Humidity: 88%
Barometer: 30.26 inHg , 1024.7 hPa
Visibility: 10 miles , 16 km
2014/09/20 07:41 KW29 200741Z AUTO 00000KT 10SM 17/15 A3026 RMK AO1
 
KCGS - College Park, Maryland, USA
Distance from station: SW 38mi, 61km
Updated: Sat, 20-Sep-2014 3:35am EDT
Overcast
Overcast
 Wind from calm
Wind: Calm
Temperature: 61°F , 16°C
Dew Point: 61°F , 16°C
Humidity: 100%
Barometer: 30.27 inHg , 1025.1 hPa
Clouds: Overcast
Visibility: 7 miles , 11 km
Cloud details: Mostly cloudy 7500 ft
Overcast 8000 ft
2014/09/20 07:35 KCGS 200735Z AUTO 00000KT 7SM BKN075 OVC080 16/16 A3027 RMK AO1
KGAI - Gaithersburg, Maryland, USA
Distance from station: WSW 40mi, 65km
Updated: Sat, 20-Sep-2014 3:35am EDT
Overcast
Overcast
 Wind from ESE
Wind: ESE 8 mph , 13 km/h
Temperature: 61°F , 16°C
Dew Point: 59°F , 15°C
Humidity: 94%
Barometer: 30.30 inHg , 1026.1 hPa
Clouds: Overcast
Visibility: 9 miles , 14 km
Cloud details: Mostly cloudy 6000 ft
Overcast 8000 ft
2014/09/20 07:35 KGAI 200735Z 12007KT 9SM BKN060 OVC080 16/15 A3030 RMK AO1
 
KTHV - York, Pennsylvania, USA
Distance from station: NNW 40mi, 65km
Updated: Sat, 20-Sep-2014 3:37am EDT
Mostly cloudy
Mostly cloudy
 Wind from varies
Wind: varies 5 mph , 7 km/h
Temperature: 61°F , 16°C
Dew Point: 57°F , 14°C
Humidity: 88%
Barometer: 30.27 inHg , 1025.1 hPa
Clouds: Mostly cloudy
Visibility: 7 miles , 11 km
Cloud details: Few Clouds 1000 ft
Partly cloudy 6500 ft
Mostly cloudy 8500 ft
2014/09/20 07:37 KTHV 200737Z AUTO VRB04KT 7SM FEW010 SCT065 BKN085 16/14 A3027 RMK AO2 T01560139
KFDK - Frederick, Maryland, USA
Distance from station: W 47mi, 75km
Updated: Sat, 20-Sep-2014 3:40am EDT
Overcast
Overcast
 Wind from calm
Wind: Calm
Temperature: 64°F , 18°C
Dew Point: 61°F , 16°C
Humidity: 88%
Barometer: 30.28 inHg , 1025.4 hPa
Clouds: Overcast
Visibility: 10 miles , 16 km
Cloud details: Mostly cloudy 1300 ft
Mostly cloudy 7000 ft
Overcast 8000 ft
2014/09/20 07:40 KFDK 200740Z AUTO 00000KT 10SM BKN013 BKN070 OVC080 18/16 A3028 RMK AO2
 
KESN - Easton/Newnam, Maryland, USA
Distance from station: SSE 48mi, 78km
Updated: Sat, 20-Sep-2014 3:53am EDT
Mostly cloudy
Mostly cloudy
 Wind from calm
Wind: Calm
Temperature: 61°F , 16°C
Dew Point: 61°F , 16°C
Humidity: 100%
Barometer: 30.29 inHg , 1025.7 hPa
Clouds: Mostly cloudy
Visibility: 7 miles , 11 km
Cloud details: Partly cloudy 2700 ft
Partly cloudy 3200 ft
Mostly cloudy 8500 ft
2014/09/20 07:53 KESN 200753Z AUTO 00000KT 7SM SCT027 SCT032 BKN085 16/16 A3029 RMK AO2 T01610161
KDCA - Washington/Natl, Washington D.c., USA
Distance from station: SW 49mi, 79km
Updated: Sat, 20-Sep-2014 2:52am EDT
Partly cloudy
Partly cloudy
 Wind from calm
Wind: Calm
Temperature: 66°F , 19°C
Dew Point: 59°F , 15°C
Humidity: 78%
Barometer: 30.27 inHg , 1025.1 hPa
Clouds: Partly cloudy
Visibility: 10 miles , 16 km
Cloud details: Few Clouds 2000 ft
Partly cloudy 8000 ft
2014/09/20 06:52 KDCA 200652Z 00000KT 10SM FEW020 SCT080 19/15 A3027 RMK AO2 SLP250 T01890150
 
KLNS - Lancaster, Pennsylvania, USA
Distance from station: N 49mi, 79km
Updated: Sat, 20-Sep-2014 2:53am EDT
Mist, Overcast
Mist, Overcast
 Wind from E
Wind: E 5 mph , 7 km/h
Temperature: 55°F , 13°C
Dew Point: 54°F , 12°C
Humidity: 94%
Barometer: 30.29 inHg , 1025.7 hPa
Summary: Mist
Clouds: Overcast
Visibility: 5 miles , 8 km
Cloud details: Few Clouds 2900 ft
Mostly cloudy 6500 ft
Overcast 8000 ft
2014/09/20 06:53 KLNS 200653Z 09004KT 5SM BR FEW029 BKN065 OVC080 13/12 A3029 RMK AO2 SLP256 T01330117
KILG - Wilmington, Delaware, USA
Distance from station: ENE 50mi, 81km
Updated: Sat, 20-Sep-2014 2:51am EDT
Mostly cloudy
Mostly cloudy
 Wind from NE
Wind: NE 3 mph , 6 km/h
Temperature: 57°F , 14°C
Dew Point: 55°F , 13°C
Humidity: 94%
Barometer: 30.29 inHg , 1025.7 hPa
Clouds: Mostly cloudy
Visibility: 10 miles , 16 km
Cloud details: Mostly cloudy 2800 ft
2014/09/20 06:51 KILG 200651Z AUTO 04003KT 10SM BKN028 14/13 A3029 RMK AO2 SLP258 T01440128